createdAt,value
2018-07-12T00:01:56.620Z,21.80
2018-07-12T00:04:25.170Z,21.80
2018-07-12T00:06:53.759Z,21.70
2018-07-12T00:09:22.113Z,21.70
2018-07-12T00:11:50.697Z,21.80
2018-07-12T00:14:19.481Z,21.70
2018-07-12T00:16:47.901Z,21.60
2018-07-12T00:19:16.675Z,21.60
2018-07-12T00:21:45.177Z,21.60
2018-07-12T00:24:13.384Z,21.50
2018-07-12T00:26:41.952Z,21.50
2018-07-12T00:29:11.503Z,21.50
2018-07-12T00:31:39.919Z,21.60
2018-07-12T00:34:08.365Z,21.80
2018-07-12T00:36:36.742Z,21.70
2018-07-12T00:39:06.866Z,21.70
2018-07-12T00:41:35.649Z,21.60
2018-07-12T00:44:04.409Z,21.50
2018-07-12T00:46:33.045Z,21.50
2018-07-12T00:49:01.752Z,21.50
2018-07-12T00:51:30.514Z,21.40
2018-07-12T00:53:59.345Z,21.40
2018-07-12T00:56:27.895Z,21.30
2018-07-12T00:58:57.009Z,21.30
2018-07-12T01:01:25.436Z,21.20
2018-07-12T01:03:53.992Z,21.20
2018-07-12T01:06:22.303Z,21.30
2018-07-12T01:08:50.851Z,21.30
2018-07-12T01:11:19.410Z,21.40
2018-07-12T01:13:47.819Z,21.40
2018-07-12T01:16:16.682Z,21.40
2018-07-12T01:18:45.375Z,21.50
2018-07-12T01:21:13.789Z,21.60
2018-07-12T01:23:42.384Z,21.50
2018-07-12T01:26:10.901Z,21.60
2018-07-12T01:28:39.270Z,21.50
2018-07-12T01:31:07.809Z,21.50
2018-07-12T01:33:36.396Z,21.40
2018-07-12T01:36:04.822Z,21.40
2018-07-12T01:38:33.410Z,21.30
2018-07-12T01:41:02.305Z,21.20
2018-07-12T01:43:31.085Z,21.10
2018-07-12T01:45:59.720Z,21.10
2018-07-12T01:48:28.355Z,21.10
2018-07-12T01:50:57.369Z,21.00
2018-07-12T01:53:25.991Z,20.90
2018-07-12T01:55:54.516Z,20.70
2018-07-12T01:58:23.283Z,20.80
2018-07-12T02:00:51.645Z,20.90
2018-07-12T02:03:20.419Z,20.90
2018-07-12T02:05:49.059Z,20.70
2018-07-12T02:08:17.470Z,20.70
2018-07-12T02:10:45.787Z,20.80
2018-07-12T02:13:14.511Z,20.90
2018-07-12T02:15:43.023Z,21.00
2018-07-12T02:18:11.367Z,20.90
2018-07-12T02:20:39.806Z,20.80
2018-07-12T02:23:08.656Z,20.90
2018-07-12T02:25:37.075Z,20.90
2018-07-12T02:28:05.599Z,20.80
2018-07-12T02:30:34.022Z,20.60
2018-07-12T02:33:02.391Z,20.60
2018-07-12T02:35:30.932Z,20.50
2018-07-12T02:37:59.551Z,20.50
2018-07-12T02:40:28.109Z,20.40
2018-07-12T02:42:56.957Z,20.40
2018-07-12T02:45:25.655Z,20.30
2018-07-12T02:47:54.901Z,20.40
2018-07-12T02:50:23.257Z,20.30
2018-07-12T02:52:51.959Z,20.40
2018-07-12T02:55:20.322Z,20.50
2018-07-12T02:57:48.830Z,20.60
2018-07-12T03:00:17.614Z,20.40
2018-07-12T03:02:46.239Z,20.30
2018-07-12T03:05:14.933Z,20.20
2018-07-12T03:07:43.572Z,20.20
2018-07-12T03:10:12.133Z,20.00
2018-07-12T03:12:40.815Z,19.90
2018-07-12T03:15:09.414Z,19.80
2018-07-12T03:17:38.249Z,19.80
2018-07-12T03:20:06.890Z,19.80
2018-07-12T03:22:35.647Z,19.80
2018-07-12T03:25:04.167Z,19.90
2018-07-12T03:27:32.709Z,19.80
2018-07-12T03:32:30.064Z,19.70
2018-07-12T03:34:58.811Z,19.80
2018-07-12T03:39:56.094Z,19.70
2018-07-12T03:44:53.499Z,19.70
2018-07-12T03:47:22.270Z,19.80
2018-07-12T03:49:50.770Z,19.80
2018-07-12T03:52:19.543Z,19.60
2018-07-12T03:54:48.375Z,19.60
2018-07-12T03:57:16.941Z,19.60
2018-07-12T04:02:14.478Z,19.70
2018-07-12T04:04:42.992Z,19.70
2018-07-12T04:07:11.671Z,19.60
2018-07-12T04:09:40.378Z,19.50
2018-07-12T04:12:08.888Z,19.50
2018-07-12T04:14:37.240Z,19.50
2018-07-12T04:17:05.771Z,19.60
2018-07-12T04:19:34.156Z,19.60
2018-07-12T04:22:02.776Z,19.50
2018-07-12T04:24:31.415Z,19.40
2018-07-12T04:26:59.910Z,19.40
2018-07-12T04:29:28.469Z,19.40
2018-07-12T04:31:57.033Z,19.40
2018-07-12T04:34:25.624Z,19.40
2018-07-12T04:36:54.267Z,19.50
2018-07-12T04:39:22.704Z,19.40
2018-07-12T04:41:51.570Z,19.40
2018-07-12T04:44:20.302Z,19.30
2018-07-12T04:46:49.134Z,19.30
2018-07-12T04:49:17.974Z,19.30
2018-07-12T04:51:46.524Z,19.40
2018-07-12T04:56:44.933Z,19.60
2018-07-12T04:59:13.283Z,19.50
2018-07-12T05:01:41.991Z,19.50
2018-07-12T05:06:40.385Z,19.50
2018-07-12T05:09:10.197Z,19.50
2018-07-12T05:11:38.564Z,19.70
2018-07-12T05:16:36.423Z,19.90
2018-07-12T05:21:33.708Z,19.90
2018-07-12T05:24:02.668Z,19.90
2018-07-12T05:26:31.104Z,19.90
2018-07-12T05:28:59.512Z,20.00
2018-07-12T05:31:28.252Z,19.90
2018-07-12T05:33:56.734Z,19.80
2018-07-12T05:37:01.169Z,19.80
2018-07-12T05:39:32.224Z,19.80
2018-07-12T05:42:03.614Z,19.90
2018-07-12T05:44:34.760Z,19.80
2018-07-12T05:47:06.039Z,19.70
2018-07-12T05:49:37.148Z,19.80
2018-07-12T05:52:08.597Z,19.80
2018-07-12T05:54:40.056Z,19.80
2018-07-12T05:57:11.151Z,19.70
2018-07-12T05:59:42.498Z,19.70
2018-07-12T06:02:22.344Z,19.80
2018-07-12T06:04:53.537Z,19.90
2018-07-12T06:07:32.003Z,20.00
2018-07-12T06:10:03.439Z,20.10
2018-07-12T06:12:34.758Z,20.20
2018-07-12T06:15:06.111Z,20.10
2018-07-12T06:17:37.356Z,20.20
2018-07-12T06:20:10.906Z,20.20
2018-07-12T06:22:42.093Z,20.50
2018-07-12T06:25:13.486Z,20.80
2018-07-12T06:27:44.970Z,20.70
2018-07-12T06:30:16.846Z,20.70
2018-07-12T06:32:48.066Z,20.70
2018-07-12T06:35:19.292Z,20.60
2018-07-12T06:37:50.451Z,20.50
2018-07-12T06:40:21.847Z,20.40
2018-07-12T06:42:53.201Z,20.60
2018-07-12T06:45:24.585Z,20.40
2018-07-12T06:47:55.777Z,20.60
2018-07-12T06:50:26.991Z,20.50
2018-07-12T06:52:58.193Z,20.50
2018-07-12T06:55:29.632Z,20.50
2018-07-12T06:58:00.760Z,20.50
2018-07-12T07:00:32.193Z,20.60
2018-07-12T07:03:03.515Z,20.70
2018-07-12T07:05:34.944Z,20.90
2018-07-12T07:08:06.160Z,20.90
2018-07-12T07:10:37.355Z,21.00
2018-07-12T07:13:09.260Z,21.20
2018-07-12T07:15:40.521Z,21.20
2018-07-12T07:18:11.877Z,21.20
2018-07-12T07:20:43.080Z,21.10
2018-07-12T07:23:14.268Z,21.40
2018-07-12T07:25:45.672Z,21.50
2018-07-12T07:28:17.175Z,21.60
2018-07-12T07:30:48.375Z,21.80
2018-07-12T07:33:19.607Z,21.70
2018-07-12T07:35:50.859Z,21.70
2018-07-12T07:38:22.200Z,21.80
2018-07-12T07:40:53.616Z,22.10
2018-07-12T07:43:25.006Z,22.00
2018-07-12T07:45:56.148Z,21.90
2018-07-12T07:48:27.555Z,21.90
2018-07-12T07:50:59.200Z,21.80
2018-07-12T07:53:30.565Z,21.80
2018-07-12T07:56:01.659Z,22.00
2018-07-12T07:58:32.849Z,22.10
2018-07-12T08:01:03.958Z,22.50
2018-07-12T08:03:35.279Z,22.80
2018-07-12T08:06:07.043Z,23.00
2018-07-12T08:08:38.239Z,23.00
2018-07-12T08:11:09.294Z,22.90
2018-07-12T08:13:40.486Z,23.20
2018-07-12T08:16:11.480Z,23.50
2018-07-12T08:18:43.135Z,23.70
2018-07-12T08:23:48.125Z,23.50
2018-07-12T08:26:19.167Z,23.70
2018-07-12T08:28:50.408Z,24.00
2018-07-12T08:31:21.991Z,24.50
2018-07-12T08:33:53.115Z,24.70
2018-07-12T08:36:24.518Z,24.90
2018-07-12T08:38:55.876Z,25.30
2018-07-12T08:41:27.329Z,25.30
2018-07-12T08:43:58.920Z,25.20
2018-07-12T08:46:30.525Z,25.60
2018-07-12T08:49:02.332Z,25.90
2018-07-12T08:54:04.280Z,26.50
2018-07-12T08:56:35.884Z,26.30
2018-07-12T08:59:07.075Z,26.40
2018-07-12T09:01:38.331Z,26.80
2018-07-12T09:04:09.419Z,26.70
2018-07-12T09:06:40.605Z,26.30
2018-07-12T09:09:12.592Z,27.30
2018-07-12T09:11:43.931Z,27.00
2018-07-12T09:14:15.583Z,26.80
2018-07-12T09:16:46.892Z,26.70
2018-07-12T09:19:17.976Z,27.20
2018-07-12T09:21:49.655Z,27.00
2018-07-12T09:24:21.032Z,27.30
2018-07-12T09:26:52.243Z,27.00
2018-07-12T09:29:23.456Z,26.90
2018-07-12T09:31:55.133Z,26.70
2018-07-12T09:34:26.227Z,26.70
2018-07-12T09:36:57.494Z,26.70
2018-07-12T09:39:28.752Z,26.40
2018-07-12T09:41:59.995Z,27.10
2018-07-12T09:44:31.003Z,27.80
2018-07-12T09:47:02.360Z,28.20
2018-07-12T09:49:33.596Z,27.40
2018-07-12T09:52:09.466Z,27.20
2018-07-12T09:54:40.549Z,27.10
2018-07-12T09:57:27.785Z,26.70
2018-07-12T09:59:58.974Z,26.50
2018-07-12T10:02:35.112Z,26.50
2018-07-12T10:05:10.731Z,26.80
2018-07-12T10:07:42.890Z,27.00
2018-07-12T10:10:14.175Z,27.90
2018-07-12T10:12:51.106Z,27.40
2018-07-12T10:15:27.524Z,26.80
2018-07-12T10:18:03.584Z,26.60
2018-07-12T10:20:35.511Z,26.40
2018-07-12T10:23:06.900Z,26.40
2018-07-12T10:25:38.131Z,26.40
2018-07-12T10:28:09.251Z,26.40
2018-07-12T10:30:40.604Z,26.60
2018-07-12T10:33:11.907Z,26.90
2018-07-12T10:35:43.184Z,26.90
2018-07-12T10:38:14.193Z,27.30
2018-07-12T10:40:45.587Z,27.90
2018-07-12T10:43:17.244Z,28.30
2018-07-12T10:45:48.544Z,28.20
2018-07-12T10:48:19.576Z,27.90
2018-07-12T10:50:50.788Z,27.60
2018-07-12T10:53:22.387Z,27.80
2018-07-12T10:55:53.768Z,28.30
2018-07-12T10:58:25.067Z,28.00
2018-07-12T11:00:56.111Z,28.20
2018-07-12T11:03:27.933Z,28.60
2018-07-12T11:05:59.239Z,28.50
2018-07-12T11:08:30.467Z,28.40
2018-07-12T11:11:02.072Z,28.30
2018-07-12T11:13:49.022Z,28.60
2018-07-12T11:16:20.227Z,29.40
2018-07-12T11:18:51.347Z,29.10
2018-07-12T11:21:22.752Z,29.30
2018-07-12T11:23:53.944Z,29.30
2018-07-12T11:26:25.371Z,29.80
2018-07-12T11:28:57.487Z,30.10
2018-07-12T11:31:28.916Z,29.50
2018-07-12T11:34:00.255Z,29.10
2018-07-12T11:36:31.452Z,29.30
2018-07-12T11:39:02.695Z,29.60
2018-07-12T11:41:33.993Z,29.50
2018-07-12T11:48:55.241Z,29.70
2018-07-12T11:51:26.605Z,30.50
2018-07-12T11:54:01.047Z,31.20
2018-07-12T11:56:32.331Z,31.10
2018-07-12T11:59:04.026Z,30.60
2018-07-12T12:01:35.641Z,30.40
2018-07-12T12:06:37.705Z,30.20
2018-07-12T12:09:09.299Z,29.90
2018-07-12T12:11:40.711Z,30.10
2018-07-12T12:14:12.024Z,30.10
2018-07-12T12:16:43.306Z,30.40
2018-07-12T12:19:18.174Z,30.70
2018-07-12T12:21:49.547Z,30.50
2018-07-12T12:24:20.775Z,30.40
2018-07-12T12:26:52.067Z,30.50
2018-07-12T12:29:23.318Z,31.00
2018-07-12T12:31:54.372Z,30.90
2018-07-12T12:34:25.570Z,31.20
2018-07-12T12:36:56.752Z,31.20
2018-07-12T12:39:27.905Z,31.20
2018-07-12T12:41:59.173Z,30.70
2018-07-12T12:44:30.456Z,30.50
2018-07-12T12:47:02.208Z,31.00
2018-07-12T12:49:33.303Z,30.80
2018-07-12T12:52:04.820Z,30.40
2018-07-12T12:54:36.039Z,30.30
2018-07-12T12:57:07.200Z,30.80
2018-07-12T12:59:38.706Z,30.70
2018-07-12T13:02:09.799Z,31.10
2018-07-12T13:04:41.028Z,31.10
2018-07-12T13:07:12.656Z,31.20
2018-07-12T13:09:44.608Z,30.80
2018-07-12T13:12:15.957Z,30.80
2018-07-12T13:14:47.499Z,31.50
2018-07-12T13:17:19.051Z,31.70
2018-07-12T13:19:50.171Z,31.20
2018-07-12T13:22:21.302Z,31.10
2018-07-12T13:24:53.171Z,30.80
2018-07-12T13:27:23.890Z,30.50
2018-07-12T13:29:55.446Z,30.30
2018-07-12T13:32:26.499Z,30.40
2018-07-12T13:34:57.907Z,30.00
2018-07-12T13:37:29.080Z,29.90
2018-07-12T13:40:00.952Z,29.80
2018-07-12T13:42:32.048Z,30.00
2018-07-12T13:45:03.416Z,30.00
2018-07-12T13:47:34.685Z,30.50
2018-07-12T13:50:06.459Z,30.90
2018-07-12T13:52:38.349Z,31.40
2018-07-12T13:55:09.554Z,31.50
2018-07-12T13:57:40.766Z,31.00
2018-07-12T14:00:12.161Z,30.40
2018-07-12T14:02:43.365Z,30.20
2018-07-12T14:05:14.996Z,30.40
2018-07-12T14:07:46.777Z,30.50
2018-07-12T14:10:18.075Z,30.70
2018-07-12T14:12:49.453Z,30.50
2018-07-12T14:15:24.071Z,30.60
2018-07-12T14:17:55.443Z,30.90
2018-07-12T14:20:26.998Z,31.00
2018-07-12T14:22:58.148Z,31.30
2018-07-12T14:25:29.346Z,30.60
2018-07-12T14:28:00.399Z,30.30
2018-07-12T14:30:31.579Z,30.20
2018-07-12T14:33:02.925Z,30.30
2018-07-12T14:35:33.915Z,30.30
2018-07-12T14:38:05.110Z,30.20
2018-07-12T14:40:36.136Z,30.30
2018-07-12T14:43:07.535Z,30.00
2018-07-12T14:45:38.699Z,29.90
2018-07-12T14:48:09.928Z,29.60
2018-07-12T14:50:41.280Z,29.40
2018-07-12T14:53:12.947Z,29.00
2018-07-12T14:55:44.247Z,28.90
2018-07-12T14:58:15.285Z,29.00
2018-07-12T15:00:46.895Z,29.30
2018-07-12T15:03:18.040Z,29.20
2018-07-12T15:05:49.236Z,29.00
2018-07-12T15:08:21.565Z,29.00
2018-07-12T15:10:52.809Z,29.00
2018-07-12T15:13:24.159Z,29.10
2018-07-12T15:15:55.820Z,29.00
2018-07-12T15:18:27.423Z,28.90
2018-07-12T15:20:58.713Z,29.10
2018-07-12T15:23:29.864Z,29.00
2018-07-12T15:26:01.543Z,29.00
2018-07-12T15:28:33.157Z,29.10
2018-07-12T15:31:04.511Z,28.80
2018-07-12T15:33:35.851Z,28.60
2018-07-12T15:36:07.823Z,28.50
2018-07-12T15:38:38.859Z,28.30
2018-07-12T15:41:10.307Z,28.30
2018-07-12T15:43:41.607Z,28.20
2018-07-12T15:46:13.731Z,28.40
2018-07-12T15:48:44.972Z,28.40
2018-07-12T15:51:16.168Z,28.50
2018-07-12T15:53:47.387Z,28.40
2018-07-12T15:56:18.713Z,28.60
2018-07-12T15:58:49.927Z,28.80
2018-07-12T16:01:20.916Z,28.90
2018-07-12T16:03:52.111Z,29.20
2018-07-12T16:06:23.149Z,29.40
2018-07-12T16:08:54.315Z,29.50
2018-07-12T16:11:25.988Z,29.60
2018-07-12T16:13:57.264Z,29.70
2018-07-12T16:16:29.319Z,29.70
2018-07-12T16:19:00.483Z,29.90
2018-07-12T16:21:31.845Z,29.60
2018-07-12T16:24:03.067Z,29.40
2018-07-12T16:26:34.469Z,29.60
2018-07-12T16:29:05.945Z,29.50
2018-07-12T16:31:38.007Z,29.40
2018-07-12T16:34:09.252Z,29.50
2018-07-12T16:36:40.541Z,29.50
2018-07-12T16:39:11.776Z,29.40
2018-07-12T16:41:43.012Z,29.30
2018-07-12T16:44:14.658Z,29.10
2018-07-12T16:46:46.229Z,28.90
2018-07-12T16:49:17.556Z,29.00
2018-07-12T16:51:48.703Z,29.10
2018-07-12T16:54:20.052Z,29.00
2018-07-12T16:56:51.478Z,29.10
2018-07-12T16:59:22.872Z,29.10
2018-07-12T17:01:54.101Z,29.10
2018-07-12T17:04:25.244Z,29.10
2018-07-12T17:06:56.615Z,29.00
2018-07-12T17:09:27.827Z,29.00
2018-07-12T17:11:59.907Z,29.20
2018-07-12T17:14:32.176Z,29.20
2018-07-12T17:19:33.996Z,29.20
2018-07-12T17:22:05.427Z,29.20
2018-07-12T17:24:36.567Z,29.20
2018-07-12T17:27:07.924Z,29.20
2018-07-12T17:29:39.296Z,29.10
2018-07-12T17:32:10.516Z,29.00
2018-07-12T17:34:42.168Z,28.90
2018-07-12T17:37:13.547Z,28.80
2018-07-12T17:39:45.171Z,28.70
2018-07-12T17:42:16.455Z,28.80
2018-07-12T17:44:47.447Z,28.70
2018-07-12T17:47:18.685Z,28.70
2018-07-12T17:49:49.835Z,28.60
2018-07-12T17:52:21.055Z,28.60
2018-07-12T17:54:52.432Z,28.50
2018-07-12T17:57:30.056Z,28.50
2018-07-12T18:00:01.112Z,28.40
2018-07-12T18:02:32.289Z,28.40
2018-07-12T18:05:04.010Z,28.50
2018-07-12T18:07:35.398Z,28.40
2018-07-12T18:10:11.038Z,28.30
2018-07-12T18:12:42.350Z,28.30
2018-07-12T18:15:13.842Z,28.20
2018-07-12T18:17:45.035Z,28.20
2018-07-12T18:20:16.644Z,28.10
2018-07-12T18:22:47.715Z,28.00
2018-07-12T18:25:20.467Z,28.00
2018-07-12T18:27:52.697Z,27.90
2018-07-12T18:30:23.859Z,27.90
2018-07-12T18:32:55.232Z,27.90
2018-07-12T18:35:26.888Z,27.90
2018-07-12T18:37:58.281Z,28.00
2018-07-12T18:40:29.583Z,27.90
2018-07-12T18:43:00.760Z,27.80
2018-07-12T18:45:31.815Z,27.70
2018-07-12T18:48:03.819Z,27.70
2018-07-12T18:50:35.167Z,27.60
2018-07-12T18:53:06.537Z,27.50
2018-07-12T18:55:38.189Z,27.40
2018-07-12T18:58:09.795Z,27.40
2018-07-12T19:00:41.096Z,27.30
2018-07-12T19:03:12.324Z,27.20
2018-07-12T19:05:43.482Z,27.30
2018-07-12T19:08:15.463Z,27.30
2018-07-12T19:10:46.653Z,27.30
2018-07-12T19:13:17.820Z,27.20
2018-07-12T19:15:49.020Z,27.10
2018-07-12T19:18:20.031Z,27.00
2018-07-12T19:20:51.476Z,27.00
2018-07-12T19:23:22.784Z,26.90
2018-07-12T19:25:54.175Z,26.80
2018-07-12T19:28:25.372Z,26.70
2018-07-12T19:30:56.573Z,26.60
2018-07-12T19:33:28.015Z,26.60
2018-07-12T19:35:59.174Z,26.60
2018-07-12T19:38:30.923Z,26.50
2018-07-12T19:41:02.322Z,26.40
2018-07-12T19:43:33.750Z,26.30
2018-07-12T19:46:04.918Z,26.20
2018-07-12T19:48:36.301Z,26.00
2018-07-12T19:51:07.948Z,26.10
2018-07-12T19:53:39.256Z,26.10
2018-07-12T19:56:11.288Z,26.00
2018-07-12T19:58:43.493Z,26.00
2018-07-12T20:01:15.043Z,25.80
2018-07-12T20:03:46.447Z,25.80
2018-07-12T20:06:17.768Z,25.70
2018-07-12T20:08:49.946Z,25.60
2018-07-12T20:13:53.523Z,25.60
2018-07-12T20:16:25.895Z,25.50
2018-07-12T20:23:36.503Z,25.50
2018-07-12T20:26:09.172Z,25.50
2018-07-12T20:28:40.929Z,25.40
2018-07-12T20:31:12.318Z,25.40
2018-07-12T20:33:43.404Z,25.30
2018-07-12T20:36:14.767Z,25.30
2018-07-12T20:38:45.957Z,25.20
2018-07-12T20:41:17.327Z,25.10
2018-07-12T20:43:48.543Z,24.90
2018-07-12T20:46:20.200Z,24.80
2018-07-12T20:51:22.124Z,24.60
2018-07-12T20:53:53.331Z,24.60
2018-07-12T20:56:24.689Z,24.50
2018-07-12T20:58:55.888Z,24.50
2018-07-12T21:01:27.926Z,24.50
2018-07-12T21:03:59.244Z,24.40
2018-07-12T21:06:30.318Z,24.40
2018-07-12T21:09:01.915Z,24.40
2018-07-12T21:11:33.084Z,24.30
2018-07-12T21:14:04.431Z,24.20
2018-07-12T21:16:35.799Z,24.10
2018-07-12T21:19:07.437Z,24.10
2018-07-12T21:21:38.588Z,24.00
2018-07-12T21:24:09.802Z,24.00
2018-07-12T21:26:40.949Z,24.10
2018-07-12T21:29:12.881Z,24.20
2018-07-12T21:31:44.158Z,24.00
2018-07-12T21:34:15.512Z,24.00
2018-07-12T21:36:46.547Z,24.00
2018-07-12T21:39:17.836Z,23.90
2018-07-12T21:41:48.954Z,23.80
2018-07-12T21:44:20.178Z,23.70
2018-07-12T21:46:51.758Z,23.70
2018-07-12T21:49:23.258Z,23.70
2018-07-12T21:51:54.309Z,23.80
2018-07-12T21:54:25.651Z,23.80
2018-07-12T21:56:57.095Z,23.70
2018-07-12T21:59:28.401Z,23.60
2018-07-12T22:01:59.440Z,23.60
2018-07-12T22:04:30.772Z,23.60
2018-07-12T22:08:26.843Z,23.50
2018-07-12T22:11:05.581Z,23.50
2018-07-12T22:13:38.311Z,23.40
2018-07-12T22:16:09.351Z,23.40
2018-07-12T22:18:40.734Z,23.40
2018-07-12T22:21:12.249Z,23.40
2018-07-12T22:23:43.475Z,23.30
2018-07-12T22:26:14.700Z,23.20
2018-07-12T22:28:45.699Z,23.10
2018-07-12T22:31:17.092Z,23.10
2018-07-12T22:33:48.287Z,23.00
2018-07-12T22:36:19.652Z,22.90
2018-07-12T22:38:50.848Z,22.80
2018-07-12T22:41:22.308Z,22.80
2018-07-12T22:43:54.412Z,22.80
2018-07-12T22:46:25.450Z,22.80
2018-07-12T22:48:56.695Z,22.70
2018-07-12T22:51:27.984Z,22.50
2018-07-12T22:53:59.203Z,22.40
2018-07-12T22:56:30.375Z,22.40
2018-07-12T22:59:01.592Z,22.40
2018-07-12T23:01:32.953Z,22.40
2018-07-12T23:04:04.456Z,22.40
2018-07-12T23:06:35.746Z,22.50
2018-07-12T23:09:08.275Z,22.50
2018-07-12T23:11:39.518Z,22.40
2018-07-12T23:14:10.748Z,22.50
2018-07-12T23:16:42.063Z,22.40
2018-07-12T23:19:13.089Z,22.30
2018-07-12T23:21:44.438Z,22.30
2018-07-12T23:24:15.748Z,22.20
2018-07-12T23:26:47.295Z,22.20
2018-07-12T23:29:18.438Z,22.20
2018-07-12T23:31:49.788Z,22.10
2018-07-12T23:34:20.994Z,22.00
2018-07-12T23:36:52.017Z,22.00
2018-07-12T23:39:23.222Z,22.10
2018-07-12T23:41:54.576Z,22.20
2018-07-12T23:44:26.111Z,22.20
2018-07-12T23:46:57.204Z,22.20
2018-07-12T23:49:28.556Z,22.20
2018-07-12T23:51:59.711Z,22.20
2018-07-12T23:54:30.962Z,22.10
2018-07-12T23:57:02.334Z,22.00
2018-07-12T23:59:33.712Z,21.90
